Flight Track Log - Related Links

Times and Time Zones

All times are in EDT time to prevent confusion due to time zone crossing. See the SWA1635 flight status page for this flight to view local times or setup timezone preferences in your user account.

Time Position Orientation Groundspeed Altitude Reporting Facility
EDT Latitude Longitude Course Direction KTS MPH feet Rate Location/Type
Tue 11:13:10 AM 36.0783 -115.1739 264° West 170 196 3,500  Level Los Angeles Center
Tue 11:14:12 AM 36.0722 -115.2406 264° West 202 232 5,200 1,728 Climbing Los Angeles Center
Tue 11:15:15 AM 36.0056 -115.2842 208° Southwest 272 313 7,100 2,832 Climbing Los Angeles Center
Tue 11:16:17 AM 35.9281 -115.2842 180° South 283 326 11,100 3,290 Climbing Los Angeles Center
Tue 11:17:19 AM 35.8572 -115.2250 146° Southeast 313 360 13,900 2,855 Climbing Los Angeles Center
Tue 11:18:21 AM 35.8250 -115.0825 106° East 359 413 17,000 2,613 Climbing Los Angeles Center
Tue 11:19:23 AM 35.8306 -114.9481 87° East 388 447 19,300 2,855 Climbing Los Angeles Center
Tue 11:20:25 AM 35.8161 -114.8153 98° East 391 450 22,900 2,952 Climbing Los Angeles Center
Tue 11:21:27 AM 35.7925 -114.6817 102° East 399 459 25,400 2,129 Climbing Los Angeles Center
Tue 11:22:29 AM 35.7683 -114.5408 102° East 418 481 27,300 2,177 Climbing Los Angeles Center
Tue 11:23:31 AM 35.7303 -114.3678 105° East 439 505 29,900 2,304 Climbing Los Angeles Center
Tue 11:24:34 AM 35.6431 -114.2633 136° Southeast 436 502 32,100 1,440 Climbing Los Angeles Center
Tue 11:25:36 AM 35.5639 -114.1783 139° Southeast 436 502 32,900 387 Climbing Los Angeles Center
Tue 11:26:38 AM 35.4533 -114.0603 139° Southeast 440 506 32,900  Level Los Angeles Center
Tue 11:27:39 AM 35.3842 -113.9861 139° Southeast 441 507 32,900  Level Los Angeles Center
Tue 11:29:36 AM 35.1769 -113.7664 139° Southeast 445 512 32,900  Level Albuquerque Center
Tue 11:29:56 AM 35.1586 -113.7472 139° Southeast 443 510 32,900  Level Los Angeles Center
Tue 11:30:59 AM 35.0478 -113.6297 139° Southeast 443 510 32,900  Level Los Angeles Center
Tue 11:32:01 AM 34.9550 -113.5319 139° Southeast 445 512 32,900  Level Los Angeles Center
Tue 11:33:03 AM 34.8653 -113.4331 138° Southeast 443 510 32,900  Level Los Angeles Center
Tue 11:33:45 AM 34.8125 -113.3333 123° Southeast 443 510 32,900  Level Albuquerque Center
Tue 11:34:47 AM 34.7450 -113.2092 123° Southeast 442 509 32,900  Level Albuquerque Center
Tue 11:35:49 AM 34.6792 -113.0867 123° Southeast 440 506 32,900  Level Albuquerque Center
Tue 11:36:51 AM 34.6128 -112.9644 123° Southeast 439 505 32,900  Level Albuquerque Center
Tue 11:37:53 AM 34.5475 -112.8422 123° Southeast 437 503 32,900  Level Albuquerque Center
Tue 11:38:55 AM 34.4625 -112.6997 126° Southeast 437 503 32,900  Level Albuquerque Center
Tue 11:39:57 AM 34.3697 -112.6331 149° Southeast 440 506 32,900  Level Albuquerque Center
Tue 11:40:59 AM 34.2444 -112.5447 150° Southeast 437 503 32,900  Level Albuquerque Center
Tue 11:42:01 AM 34.1397 -112.4697 149° Southeast 438 504 32,900  Level Albuquerque Center
Tue 11:43:03 AM 34.0361 -112.3964 150° Southeast 435 501 32,900 -145 Level Albuquerque Center
Tue 11:44:05 AM 33.9319 -112.3225 150° Southeast 437 503 32,600 -629 Descending Albuquerque Center
Tue 11:45:07 AM 33.8308 -112.2489 149° Southeast 431 496 31,600 -816 Descending Albuquerque Center
Tue 11:46:10 AM 33.7094 -112.1647 150° Southeast 423 487 30,900 -339 Descending Albuquerque Center
Tue 11:47:11 AM 33.6097 -112.0928 149° Southeast 422 486 30,900  Level Albuquerque Center
Tue 11:48:13 AM 33.5086 -112.0219 150° Southeast 423 487 30,900 -532 Level Albuquerque Center
Tue 11:49:15 AM 33.4028 -111.9667 156° South 423 487 29,800 -968 Descending Albuquerque Center
Tue 11:50:17 AM 33.2850 -111.9533 175° South 426 490 28,900 -1,016 Descending Albuquerque Center
Tue 11:51:19 AM 33.1450 -111.9372 174° South 421 484 27,700 -1,065 Descending Albuquerque Center
Tue 11:52:21 AM 33.0294 -111.9233 174° South 418 481 26,700 -968 Descending Albuquerque Center
Tue 11:53:23 AM 32.9178 -111.9114 175° South 406 467 25,700 -1,548 Descending Albuquerque Center
Tue 11:54:25 AM 32.8217 -111.8547 154° Southeast 390 449 23,500 -2,226 Descending Albuquerque Center
Tue 11:55:27 AM 32.7372 -111.7836 145° Southeast 375 432 21,100 -2,381 Descending Albuquerque Center
Tue 11:56:31 AM 32.6344 -111.7036 147° Southeast 366 421 18,500 -2,377 Descending Albuquerque Center
Tue 11:57:13 AM 32.5786 -111.6575 145° Southeast 358 412 16,900 -2,200 Descending Albuquerque Center
Tue 11:57:31 AM 32.5589 -111.6344 135° Southeast 356 410 16,300 -2,073 Descending Albuquerque Center
Tue 11:58:08 AM 32.5175 -111.5828 134° Southeast 350 403 15,000 -2,129 Descending Albuquerque Center
Tue 11:58:33 AM 32.5006 -111.5469 119° Southeast 346 398 14,100 -2,100 Descending Albuquerque Center
Tue 11:59:08 AM 32.4639 -111.4933 129° Southeast 337 388 12,900 -1,645 Descending Albuquerque Center
Tue 11:59:35 AM 32.4489 -111.4581 117° Southeast 336 387 12,400 -1,475 Descending Albuquerque Center
Tue 12:00:09 PM 32.4156 -111.4081 128° Southeast 313 360 11,400 -1,548 Descending Albuquerque Center
Tue 12:00:37 PM 32.4014 -111.3736 116° Southeast 324 373 10,800 -1,612 Descending Albuquerque Center
Tue 12:01:16 PM 32.3631 -111.3133 127° Southeast 298 343 9,600 -1,475 Descending Albuquerque Center
Tue 12:01:38 PM 32.3558 -111.2939 114° Southeast 311 358 9,300 -1,500 Descending Albuquerque Center
Tue 12:02:16 PM 32.3186 -111.2372 128° Southeast 289 333 8,100 -1,452 Descending Albuquerque Center
Tue 12:02:40 PM 32.3117 -111.2183 114° Southeast 296 341 7,800 -982 Descending Albuquerque Center
Tue 12:03:11 PM 32.2792 -111.1669 127° Southeast 279 321 7,200 -968 Descending Albuquerque Center
Tue 12:03:42 PM 32.2622 -111.1303 119° Southeast 277 319 6,800 -885 Descending Albuquerque Center
Tue 12:04:12 PM 32.2403 -111.0992 130° Southeast 256 295 6,300 -871 Descending Albuquerque Center
Tue 12:04:44 PM 32.2258 -111.0636 116° Southeast 261 300 5,900 -600 Descending Albuquerque Center
Tue 12:05:12 PM 32.2064 -111.0456 142° Southeast 201 231 5,700 -677 Descending Albuquerque Center
Tue 12:05:46 PM 32.1947 -111.0167 116° Southeast 223 257 5,200 -1,082 Descending Albuquerque Center
Tue 12:06:13 PM 32.1761 -111.0108 165° South 156 180 4,600 -968 Descending Albuquerque Center
Tue 12:06:48 PM 32.1625 -110.9847 122° Southeast 183 211 4,200 -686 Descending Albuquerque Center
Tue 12:08:00 PM 32.1161 -110.9410 128° Southeast  Level Estimated
Tue 12:15:00 PM 32.1161 -110.9410 128° Southeast  Level Estimated
Tue 12:16:00 PM 32.1161 -110.9410 128° Southeast  Level Estimated

Login

Don't have an account? Register now (free) for customized features, flight alerts, and more!